Stormwatcher's Retreat Logo




                  Temp     Hi    Low   Out    Dew  Wind  Wind   Wind    Hi    Hi   Wind   Heat    THW   THSW                Rain  Solar   Solar Hi Solar   UV    UV    Hi     Heat    Cool    In     In    In     In     In   In Air          Wind  Wind    ISS   Arc.
  Date    Time     Out   Temp   Temp   Hum    Pt. Speed   Dir    Run Speed   Dir  Chill  Index  Index  Index   Bar    Rain  Rate   Rad.  Energy    Rad.  Index  Dose   UV     D-D     D-D    Temp   Hum    Dew   Heat    EMC Density     ET   Samp   Tx   Recept  Int.
------------------------------------------------------------------------------------------------------------------------------------------------------------------------------------------------------------------------------------------------------------------------
 3/08/21 12:10a   40.5   40.6   40.5    91   38.1   9.0     E   1.50  14.0     E   34.7   40.4   34.6   31.3  30.059  0.00  0.00     0     0.00      0     0.0  0.00   0.0   0.170   0.000   67.9    45   45.8   66.1   8.49  .0748    0.000   203    7    100.0   10 
 3/08/21 12:20a   40.4   40.5   40.4    91   38.0   9.0     E   1.50  16.0   ESE   34.6   40.3   34.5   31.2  30.052  0.00  0.00     0     0.00      0     0.0  0.00   0.0   0.171   0.000   67.9    45   45.8   66.1   8.49  .0748    0.000   199    7    100.0   10 
 3/08/21 12:30a   40.3   40.5   40.2    91   37.9   9.0     E   1.50  16.0   ESE   34.5   40.2   34.4   31.1  30.046  0.00  0.00     0     0.00      0     0.0  0.00   0.0   0.172   0.000   67.7    45   45.6   65.9   8.50  .0748    0.000   202    7    100.0   10 
 3/08/21 12:40a   40.1   40.3   40.1    91   37.7   9.0     E   1.50  14.0     E   34.2   40.0   34.1   30.8  30.043  0.00  0.00     0     0.00      0     0.0  0.00   0.0   0.173   0.000   67.7    45   45.6   65.9   8.50  .0748    0.000   204    7    100.0   10 
 3/08/21 12:50a   40.0   40.2   40.0    91   37.6  10.0     E   1.67  16.0   ESE   33.6   39.9   33.5   30.3  30.037  0.00  0.00     0     0.00      0     0.0  0.00   0.0   0.174   0.000   67.6    45   45.5   65.8   8.50  .0748    0.000   203    7    100.0   10 
 3/08/21  1:00a   39.9   40.0   39.8    92   37.8   9.0     E   1.50  18.0     E   34.0   39.9   34.0   30.7  30.037  0.00  0.00     0     0.00      0     0.0  0.00   0.0   0.174   0.000   67.5    45   45.4   65.6   8.50  .0748    0.001   201    7    100.0   10 
 3/08/21  1:10a   40.0   40.0   39.9    92   37.9   9.0     E   1.50  15.0   ESE   34.1   40.0   34.1   30.8  30.027  0.00  0.00     0     0.00      0     0.0  0.00   0.0   0.174   0.000   67.4    45   45.3   65.5   8.50  .0748    0.000   203    7    100.0   10 
 3/08/21  1:20a   39.9   40.0   39.9    91   37.5   8.0     E   1.33  15.0     E   34.5   39.8   34.4   31.0  30.027  0.00  0.00     0     0.00      0     0.0  0.00   0.0   0.174   0.000   67.4    45   45.3   65.5   8.50  .0748    0.000   202    7    100.0   10 
 3/08/21  1:30a   39.9   40.0   39.8    92   37.8   9.0     E   1.50  14.0   ESE   34.0   39.9   34.0   30.7  30.023  0.00  0.00     0     0.00      0     0.0  0.00   0.0   0.174   0.000   67.3    45   45.2   65.4   8.50  .0748    0.000   203    7    100.0   10 
 3/08/21  1:40a   39.8   39.9   39.8    91   37.4   9.0     E   1.50  16.0   ESE   33.8   39.7   33.7   30.4  30.021  0.00  0.00     0     0.00      0     0.0  0.00   0.0   0.175   0.000   67.2    45   45.1   65.3   8.51  .0748    0.000   201    7    100.0   10 
 3/08/21  1:50a   39.7   39.9   39.7    91   37.3   9.0     E   1.50  14.0     E   33.7   39.6   33.6   30.3  30.018  0.00  0.00     0     0.00      0     0.0  0.00   0.0   0.176   0.000   67.1    45   45.0   65.2   8.51  .0748    0.000   204    7    100.0   10 
 3/08/21  2:00a   39.7   39.7   39.6    91   37.3   9.0     E   1.50  16.0   ESE   33.7   39.6   33.6   30.3  30.012  0.00  0.00     0     0.00      0     0.0  0.00   0.0   0.176   0.000   67.0    45   44.9   65.1   8.51  .0748    0.000   201    7    100.0   10 
 3/08/21  2:10a   39.7   39.7   39.6    91   37.3   9.0     E   1.50  16.0   ESE   33.7   39.6   33.6   30.3  30.010  0.00  0.00     0     0.00      0     0.0  0.00   0.0   0.176   0.000   67.0    45   44.9   65.1   8.51  .0748    0.000   204    7    100.0   10 
 3/08/21  2:20a   39.5   39.7   39.5    91   37.1   9.0     E   1.50  14.0   ESE   33.5   39.4   33.4   30.1  30.005  0.00  0.00     0     0.00      0     0.0  0.00   0.0   0.177   0.000   66.9    45   44.9   65.0   8.51  .0748    0.000   202    7    100.0   10 
 3/08/21  2:30a   39.5   39.5   39.4    91   37.1   9.0     E   1.50  16.0   ESE   33.5   39.4   33.4   30.1  29.999  0.00  0.00     0     0.00      0     0.0  0.00   0.0   0.177   0.000   66.8    45   44.8   64.9   8.51  .0748    0.000   202    7    100.0   10 
 3/08/21  2:40a   39.5   39.5   39.4    91   37.1   8.0     E   1.33  14.0   ESE   34.0   39.4   33.9   30.5  29.996  0.00  0.00     0     0.00      0     0.0  0.00   0.0   0.177   0.000   66.7    44   44.1   64.6   8.35  .0749    0.000   204    7    100.0   10 
 3/08/21  2:50a   39.6   39.6   39.5    91   37.2   9.0     E   1.50  13.0     E   33.6   39.5   33.5   30.2  29.993  0.00  0.00     0     0.00      0     0.0  0.00   0.0   0.176   0.000   66.6    45   44.6   64.6   8.52  .0748    0.000   201    7    100.0   10 
 3/08/21  3:00a   39.5   39.7   39.5    90   36.8   9.0     E   1.50  14.0   ESE   33.5   39.4   33.4   30.0  29.991  0.00  0.00     0     0.00      0     0.0  0.00   0.0   0.177   0.000   66.6    44   44.0   64.5   8.35  .0749    0.000   204    7    100.0   10 
 3/08/21  3:10a   39.5   39.6   39.4    90   36.8   9.0     E   1.50  14.0   ESE   33.5   39.4   33.4   30.0  29.986  0.00  0.00     0     0.00      0     0.0  0.00   0.0   0.177   0.000   66.5    44   43.9   64.4   8.35  .0749    0.000   204    7    100.0   10 
 3/08/21  3:20a   39.4   39.5   39.4    90   36.7   8.0   ESE   1.33  13.0   ESE   33.9   39.3   33.8   30.3  29.981  0.00  0.00     0     0.00      0     0.0  0.00   0.0   0.178   0.000   66.4    44   43.8   64.3   8.35  .0749    0.000   204    7    100.0   10 
 3/08/21  3:30a   39.5   39.5   39.4    90   36.8   8.0     E   1.33  18.0     E   34.0   39.4   33.9   30.4  29.979  0.00  0.00     0     0.00      0     0.0  0.00   0.0   0.177   0.000   66.3    44   43.7   64.2   8.35  .0749    0.000   203    7    100.0   10 
 3/08/21  3:40a   39.4   39.5   39.4    90   36.7   8.0     E   1.33  13.0    SE   33.9   39.3   33.8   30.3  29.978  0.00  0.00     0     0.00      0     0.0  0.00   0.0   0.178   0.000   66.2    44   43.6   64.0   8.35  .0749    0.000   202    7    100.0   10 
 3/08/21  3:50a   39.3   39.4   39.3    90   36.6   9.0     E   1.50  16.0     E   33.2   39.2   33.1   29.7  29.970  0.00  0.00     0     0.00      0     0.0  0.00   0.0   0.178   0.000   66.2    44   43.6   64.0   8.35  .0749    0.000   204    7    100.0   10 
 3/08/21  4:00a   39.2   39.3   39.2    90   36.5   9.0   ESE   1.50  17.0     E   33.1   39.1   33.0   29.6  29.970  0.00  0.00     0     0.00      0     0.0  0.00   0.0   0.179   0.000   66.1    44   43.5   63.9   8.35  .0749    0.001   200    7    100.0   10 
 3/08/21  4:10a   39.2   39.3   39.2    89   36.2   9.0     E   1.50  16.0   ESE   33.1   39.1   33.0   29.6  29.970  0.00  0.00     0     0.00      0     0.0  0.00   0.0   0.179   0.000   66.0    44   43.5   63.8   8.35  .0749    0.000   204    7    100.0   10 
 3/08/21  4:20a   39.2   39.3   39.2    89   36.2   9.0     E   1.50  13.0   ESE   33.1   39.1   33.0   29.6  29.966  0.00  0.00     0     0.00      0     0.0  0.00   0.0   0.179   0.000   65.9    44   43.4   63.7   8.35  .0749    0.000   204    7    100.0   10 
 3/08/21  4:30a   39.2   39.2   39.2    89   36.2   9.0     E   1.50  13.0     E   33.1   39.1   33.0   29.6  29.963  0.00  0.00     0     0.00      0     0.0  0.00   0.0   0.179   0.000   65.8    44   43.3   63.6   8.35  .0749    0.000   202    7    100.0   10 
 3/08/21  4:40a   39.2   39.3   39.2    89   36.2   9.0     E   1.50  15.0   ESE   33.1   39.1   33.0   29.6  29.959  0.00  0.00     0     0.00      0     0.0  0.00   0.0   0.179   0.000   65.7    44   43.2   63.5   8.35  .0749    0.000   201    7    100.0   10 
 3/08/21  4:50a   39.1   39.2   39.1    89   36.1   9.0     E   1.50  18.0    SE   33.0   39.0   32.9   29.5  29.956  0.00  0.00     0     0.00      0     0.0  0.00   0.0   0.180   0.000   65.7    44   43.2   63.5   8.35  .0749    0.000   200    7    100.0   10 
 3/08/21  5:00a   39.0   39.1   39.0    89   36.0   9.0     E   1.50  15.0   ESE   32.9   38.9   32.8   29.4  29.956  0.00  0.00     0     0.00      0     0.0  0.00   0.0   0.181   0.000   65.6    44   43.1   63.4   8.35  .0749    0.001   203    7    100.0   10 
 3/08/21  5:10a   39.1   39.1   39.0    89   36.1   9.0   ESE   1.50  17.0    SE   33.0   39.0   32.9   29.5  29.954  0.00  0.00     0     0.00      0     0.0  0.00   0.0   0.180   0.000   65.5    44   43.0   63.3   8.35  .0749    0.000   205    7    100.0   10 
 3/08/21  5:20a   39.2   39.3   39.1    89   36.2   9.0     E   1.50  15.0    SE   33.1   39.1   33.0   29.6  29.948  0.00  0.00     0     0.00      0     0.0  0.00   0.0   0.179   0.000   65.4    44   42.9   63.2   8.35  .0749    0.000   202    7    100.0   10 
 3/08/21  5:30a   39.2   39.2   39.1    89   36.2   9.0     E   1.50  14.0     E   33.1   39.1   33.0   29.6  29.945  0.00  0.00     0     0.00      0     0.0  0.00   0.0   0.179   0.000   65.4    44   42.9   63.2   8.35  .0749    0.000   201    7    100.0   10 
 3/08/21  5:40a   39.2   39.3   39.2    88   35.9   9.0     E   1.50  15.0   ESE   33.1   39.1   33.0   29.6  29.941  0.00  0.00     0     0.00      0     0.0  0.00   0.0   0.179   0.000   65.3    44   42.8   63.0   8.35  .0749    0.000   202    7    100.0   10 
 3/08/21  5:50a   39.3   39.3   39.2    88   36.0   9.0     E   1.50  16.0     E   33.2   39.2   33.1   29.7  29.942  0.00  0.00     0     0.00      0     0.0  0.00   0.0   0.178   0.000   65.2    44   42.7   62.9   8.35  .0750    0.000   202    7    100.0   10 
 3/08/21  6:00a   39.3   39.3   39.2    88   36.0  10.0     E   1.67  18.0   ESE   32.8   39.2   32.7   29.4  29.938  0.00  0.00     0     0.00      0     0.0  0.00   0.0   0.178   0.000   65.2    44   42.7   62.9   8.35  .0750    0.001   203    7    100.0   10 
 3/08/21  6:10a   39.3   39.4   39.3    87   35.8   9.0     E   1.50  14.0   ESE   33.2   39.1   33.0   29.6  29.938  0.00  0.00     0     0.00      0     0.0  0.00   0.0   0.178   0.000   65.1    44   42.6   62.8   8.35  .0750    0.000   203    7    100.0   10 
 3/08/21  6:20a   39.5   39.5   39.3    88   36.2   6.0     E   1.00  11.0   ESE   35.2   39.4   35.1   31.4  29.952  0.00  0.00     0     0.00      0     0.0  0.00   0.0   0.177   0.000   65.2    45   43.3   63.0   8.55  .0750    0.000   204    7    100.0   10 
 3/08/21  6:30a   39.0   39.5   39.0    87   35.5   5.0   ESE   0.83  11.0   ESE   35.3   38.8   35.1   31.4  29.954  0.00  0.00     0     0.00      0     0.0  0.00   0.0   0.181   0.000   65.3    45   43.4   63.1   8.54  .0750    0.000   201    7    100.0   10 
 3/08/21  6:40a   38.5   39.0   38.5    87   35.0   4.0   ESE   0.67   9.0    SE   35.6   38.3   35.4   31.6  29.951  0.00  0.00     0     0.00      0     0.0  0.00   0.0   0.184   0.000   65.6    45   43.7   63.5   8.54  .0749    0.000   204    7    100.0   10 
 3/08/21  6:50a   38.4   38.5   38.4    87   34.9   3.0   ESE   0.50   7.0   ESE   36.6   38.2   36.4   32.7  29.954  0.00  0.00     3     0.04      7     0.0  0.00   0.0   0.185   0.000   65.9    45   43.9   63.8   8.53  .0749    0.000   204    7    100.0   10 
 3/08/21  7:00a   38.5   38.5   38.3    88   35.3   4.0   ESE   0.67   8.0     E   35.6   38.4   35.5   32.0  29.952  0.00  0.00    12     0.17     16     0.0  0.00   0.0   0.184   0.000   66.2    45   44.2   64.1   8.53  .0748    0.000   202    7    100.0   10 
 3/08/21  7:10a   38.8   38.8   38.4    88   35.6   5.0   ESE   0.83  10.0   ESE   35.1   38.7   35.0   31.7  29.952  0.00  0.00    22     0.32     26     0.0  0.00   0.0   0.182   0.000   66.4    45   44.4   64.4   8.52  .0748    0.000   202    7    100.0   10 
 3/08/21  7:20a   39.2   39.2   38.8    88   35.9   5.0   ESE   0.83  10.0   ESE   35.5   39.1   35.4   32.4  29.943  0.00  0.00    32     0.46     35     0.0  0.00   0.0   0.179   0.000   66.6    45   44.6   64.6   8.52  .0747    0.000   202    7    100.0   10 
 3/08/21  7:30a   39.6   39.6   39.2    87   36.0   6.0   ESE   1.00  12.0   ESE   35.3   39.4   35.1   32.2  29.939  0.00  0.00    39     0.56     42     0.0  0.00   0.0   0.176   0.000   66.7    45   44.7   64.7   8.52  .0747    0.000   202    7    100.0   10 
 3/08/21  7:40a   39.8   39.8   39.6    87   36.2   5.0     E   0.83  13.0     E   36.2   39.6   36.0   33.2  29.938  0.00  0.00    43     0.62     44     0.0  0.00   0.0   0.175   0.000   66.7    45   44.7   64.7   8.52  .0747    0.000   205    7    100.0   10 
 3/08/21  7:50a   39.8   39.8   39.7    87   36.2   5.0   ESE   0.83  12.0   SSE   36.2   39.6   36.0   33.2  29.942  0.00  0.00    43     0.62     44     0.0  0.00   0.0   0.175   0.000   66.8    45   44.8   64.9   8.51  .0747    0.000   202    7    100.0   10 
 3/08/21  8:00a   40.2   40.2   39.8    87   36.6   3.0   ESE   0.50   9.0     E   38.6   40.0   38.4   38.0  29.949  0.00  0.00    42     0.60     42     0.0  0.00   0.0   0.172   0.000   66.9    45   44.9   65.0   8.51  .0747    0.001   201    7    100.0   10 
 3/08/21  8:10a   40.4   40.4   40.2    86   36.5   3.0   SSE   0.50   8.0    SE   38.8   40.2   38.6   38.4  29.953  0.00  0.00    47     0.67     49     0.0  0.00   0.0   0.171   0.000   67.0    44   44.4   65.0   8.35  .0747    0.000   201    7    100.0   10 
 3/08/21  8:20a   40.7   40.7   40.4    86   36.8   1.0    SE   0.17   5.0   SSE   40.7   40.5   40.5   40.5  29.956  0.00  0.00    53     0.76     56     0.0  0.00   0.0   0.169   0.000   67.1    44   44.4   65.1   8.35  .0747    0.000   204    7    100.0   10 
 3/08/21  8:30a   41.2   41.2   40.7    86   37.3   1.0   ESE   0.17   6.0   SSE   41.2   41.0   41.0   41.0  29.953  0.00  0.00    53     0.76     54     0.0  0.00   0.0   0.165   0.000   67.3    44   44.6   65.3   8.35  .0746    0.000   201    7    100.0   10 
 3/08/21  8:40a   41.6   41.6   41.1    86   37.7   2.0    SE   0.33   7.0   ESE   41.6   41.4   41.4   41.7  29.948  0.00  0.00    60     0.86     67     0.0  0.00   0.0   0.163   0.000   67.4    44   44.7   65.4   8.35  .0746    0.000   203    7    100.0   10 
 3/08/21  8:50a   42.2   42.3   41.6    86   38.3   2.0   SSE   0.33   7.0   ESE   42.2   42.1   42.1   42.7  29.953  0.00  0.00    69     0.99     72     0.0  0.00   0.0   0.158   0.000   67.5    44   44.8   65.5   8.35  .0746    0.000   204    7    100.0   10 
 3/08/21  9:00a   42.5   42.5   42.2    85   38.3   2.0   SSE   0.33   7.0   ESE   42.5   42.3   42.3   43.2  29.955  0.00  0.00    79     1.13     84     0.3  0.02   0.5   0.156   0.000   67.7    45   45.6   65.9   8.50  .0746    0.001   205    7    100.0   10 
 3/08/21  9:10a   43.4   43.4   42.5    86   39.5   4.0     S   0.67   9.0   SSW   41.2   43.3   41.1   42.6  29.960  0.00  0.00    94     1.35    102     0.5  0.04   0.5   0.150   0.000   67.9    45   45.8   66.1   8.49  .0745    0.000   203    7    100.0   10 
 3/08/21  9:20a   43.8   43.8   43.4    86   39.9   3.0     S   0.50   6.0     S   42.7   43.7   42.6   44.8  29.955  0.00  0.00   118     1.69    132     0.5  0.04   0.6   0.147   0.000   68.0    45   45.9   66.2   8.49  .0745    0.000   200    7    100.0   10 
 3/08/21  9:30a   44.3   44.3   43.9    85   40.1   2.0     S   0.33   5.0     S   44.3   44.2   44.2   47.6  29.956  0.00  0.00   154     2.21    174     0.7  0.05   0.7   0.144   0.000   68.1    44   45.4   66.2   8.35  .0745    0.000   202    7    100.0   10 
 3/08/21  9:40a   45.3   45.3   44.3    85   41.1   3.0     S   0.50   9.0   SSE   44.4   45.2   44.3   48.3  29.958  0.00  0.00   175     2.51    199     0.7  0.05   0.8   0.137   0.000   68.3    44   45.5   66.4   8.35  .0745    0.000   205    7    100.0   10 
 3/08/21  9:50a   46.2   46.2   45.3    85   41.9   6.0     S   1.00  14.0   WSW   43.1   46.2   43.1   46.6  29.958  0.00  0.00   163     2.34    178     0.7  0.05   0.8   0.131   0.000   68.4    44   45.6   66.4   8.35  .0745    0.000   204    7    100.0   10 
 3/08/21 10:00a   47.0   47.0   46.2    85   42.7   7.0     S   1.17  13.0   SSE   43.6   47.0   43.6   48.2  29.954  0.00  0.00   203     2.91    220     0.8  0.06   0.9   0.125   0.000   68.6    44   45.8   66.6   8.35  .0744    0.003   203    7    100.0   10 
 3/08/21 10:10a   47.6   47.6   46.9    84   43.0   9.0   SSW   1.50  15.0    SW   43.0   47.6   43.0   48.1  29.952  0.00  0.00   239     3.43    251     1.0  0.07   1.0   0.121   0.000   68.8    44   46.0   66.8   8.35  .0744    0.000   204    7    100.0   10 
 3/08/21 10:20a   47.8   47.8   47.4    83   42.9  10.0   SSW   1.67  16.0   SSE   42.8   47.8   42.8   47.3  29.956  0.00  0.00   225     3.23    232     1.0  0.07   1.0   0.119   0.000   69.0    44   46.2   67.0   8.35  .0744    0.000   201    7    100.0   10 
 3/08/21 10:30a   48.0   48.0   47.8    82   42.8  11.0     S   1.83  19.0   SSW   42.5   47.9   42.4   46.8  29.957  0.00  0.00   230     3.30    234     1.1  0.08   1.2   0.118   0.000   69.1    44   46.3   67.1   8.35  .0744    0.000   204    7    100.0   10 
 3/08/21 10:40a   48.3   48.3   47.9    81   42.7  13.0   SSW   2.17  20.0   SSW   41.9   48.2   41.8   45.4  29.953  0.00  0.00   209     3.00    234     1.2  0.09   1.2   0.116   0.000   69.3    44   46.4   67.2   8.35  .0743    0.000   202    7    100.0   10 
 3/08/21 10:50a   48.5   48.5   48.1    80   42.6  11.0   SSW   1.83  20.0   SSW   43.1   48.4   43.0   46.0  29.956  0.00  0.00   178     2.55    199     1.2  0.09   1.2   0.115   0.000   69.5    44   46.6   67.4   8.35  .0743    0.000   204    7    100.0   10 
 3/08/21 11:00a   48.9   48.9   48.4    81   43.3  11.0   SSW   1.83  17.0     S   43.5   48.8   43.4   47.4  29.956  0.00  0.00   218     3.13    244     1.2  0.09   1.3   0.112   0.000   69.7    44   46.8   67.5   8.35  .0742    0.005   197    7     99.5   10 
 3/08/21 11:10a   49.3   49.3   48.9    80   43.4  12.0   SSW   2.00  19.0    SW   43.5   49.2   43.4   48.4  29.954  0.00  0.00   274     3.93    281     1.4  0.10   1.4   0.109   0.000   69.8    44   46.9   67.6   8.35  .0742    0.000   201    7    100.0   10 
 3/08/21 11:20a   49.0   49.5   49.0    79   42.8  14.0   SSW   2.33  23.0   SSW   42.4   48.9   42.3   46.5  29.953  0.00  0.00   249     3.57    279     1.4  0.10   1.4   0.111   0.000   69.9    44   47.0   67.6   8.35  .0742    0.000   201    7    100.0   10 
 3/08/21 11:30a   48.8   49.0   48.8    79   42.6  12.0   SSW   2.00  22.0   SSW   43.0   48.7   42.9   47.0  29.951  0.00  0.00   238     3.41    258     1.2  0.09   1.2   0.113   0.000   69.9    44   47.0   67.6   8.35  .0742    0.000   204    7    100.0   10 
 3/08/21 11:40a   48.7   48.8   48.7    79   42.5  11.0   SSW   1.83  19.0     S   43.3   48.6   43.2   47.8  29.953  0.00  0.00   254     3.64    262     1.2  0.09   1.2   0.113   0.000   69.9    44   47.0   67.6   8.35  .0742    0.000   204    7    100.0   10 
 3/08/21 11:50a   48.8   48.8   48.7    78   42.2  11.0   SSW   1.83  18.0   SSW   43.4   48.6   43.2   47.3  29.953  0.00  0.00   231     3.31    239     1.0  0.07   1.0   0.113   0.000   69.9    44   47.0   67.6   8.35  .0742    0.000   204    7    100.0   10 
 3/08/21 12:00p   48.8   48.9   48.7    77   41.9  10.0   SSW   1.67  18.0   SSW   43.9   48.6   43.7   47.2  29.950  0.00  0.00   203     2.91    221     0.9  0.06   1.0   0.113   0.000   69.9    44   47.0   67.6   8.35  .0742    0.006   203    7    100.0   10 
 3/08/21 12:10p   48.7   48.7   48.5    77   41.8   8.0   SSW   1.33  17.0    SW   44.9   48.5   44.7   47.6  29.943  0.00  0.00   172     2.47    179     0.7  0.05   0.8   0.113   0.000   70.0    44   47.1   67.7   8.35  .0742    0.000   205    7    100.0   10 
 3/08/21 12:20p   48.7   48.7   48.5    76   41.5  10.0   SSW   1.67  14.0   SSW   43.8   48.4   43.5   47.4  29.943  0.00  0.00   217     3.11    281     0.9  0.06   1.1   0.113   0.000   70.1    44   47.2   67.8   8.35  .0741    0.000   202    7    100.0   10 
 3/08/21 12:30p   48.9   48.9   48.7    75   41.3  11.0   SSW   1.83  16.0   SSW   43.5   48.6   43.2   48.9  29.943  0.00  0.00   308     4.42    329     1.2  0.09   1.3   0.112   0.000   70.2    44   47.3   68.0   8.35  .0741    0.000   202    7    100.0   10 
 3/08/21 12:40p   48.9   49.0   48.8    76   41.7  11.0   SSW   1.83  20.0   SSW   43.5   48.6   43.2   48.2  29.943  0.00  0.00   272     3.90    311     1.2  0.09   1.3   0.112   0.000   70.4    44   47.4   68.2   8.34  .0741    0.000   201    7    100.0   10 
 3/08/21 12:50p   49.0   49.2   48.9    77   42.1  10.0   SSW   1.67  15.0     S   44.1   48.8   43.9   50.1  29.936  0.00  0.00   313     4.49    323     1.3  0.09   1.3   0.111   0.000   70.4    44   47.4   68.2   8.34  .0741    0.000   205    7    100.0   10 
 3/08/21  1:00p   49.1   49.1   49.0    76   41.9   8.0   SSW   1.33  16.0   SSE   45.4   48.8   45.1   48.8  29.938  0.00  0.00   193     2.77    271     0.9  0.06   1.2   0.110   0.000   70.4    44   47.4   68.2   8.34  .0741    0.006   203    7    100.0   10 
 3/08/21  1:10p   49.2   49.2   49.1    73   40.9   8.0     S   1.33  18.0     S   45.5   48.9   45.2   46.7  29.946  0.00  0.00   117     1.68    128     0.6  0.04   0.6   0.110   0.000   70.4    44   47.4   68.2   8.34  .0741    0.000   203    7    100.0   10 
 3/08/21  1:20p   48.8   49.2   48.7    72   40.2   8.0     S   1.33  19.0     S   45.1   48.4   44.7   47.6  29.949  0.00  0.00   163     2.34    199     0.7  0.05   0.9   0.113   0.000   70.3    44   47.3   68.1   8.34  .0741    0.000   201    7    100.0   10 
 3/08/21  1:30p   48.2   48.8   48.2    71   39.2  12.0     S   2.00  28.0   SSW   42.2   47.8   41.8   42.7  29.956  0.00  0.00    99     1.42    142     0.4  0.03   0.7   0.117   0.000   70.3    44   47.3   68.1   8.34  .0741    0.000   204    7    100.0   10 
 3/08/21  1:40p   46.8   48.2   46.8    78   40.3  25.0   SSW   4.17  40.0   SSW   37.2   46.6   37.0   39.2  29.957  0.01  0.00   187     2.68    230     0.8  0.06   0.9   0.126   0.000   70.3    44   47.3   68.1   8.34  .0742    0.000   202    7    100.0   10 
 3/08/21  1:50p   47.0   47.1   46.6    79   40.8  15.0   SSW   2.50  29.0     S   39.8   46.8   39.6   45.6  29.954  0.00  0.00   345     4.95    956     1.3  0.09   2.3   0.125   0.000   70.4    44   47.4   68.2   8.34  .0741    0.000   203    7    100.0   10 
 3/08/21  2:00p   47.1   47.1   46.9    79   40.9   7.0     S   1.17  13.0     S   43.7   46.9   43.5   51.0  29.952  0.00  0.00   318     4.56    475     1.3  0.09   1.5   0.124   0.000   70.6    45   48.2   68.6   8.45  .0741    0.006   202    7    100.0   10 
 3/08/21  2:10p   47.4   47.5   47.0    78   40.9   8.0     S   1.33  20.0   SSW   43.4   47.2   43.2   50.5  29.953  0.00  0.00   318     4.56    427     1.3  0.09   1.4   0.122   0.000   70.8    44   47.8   68.7   8.33  .0741    0.000   202    7    100.0   10 
 3/08/21  2:20p   48.1   48.2   47.5    76   40.9   8.0     S   1.33  22.0   SSW   44.2   47.8   43.9   51.9  29.951  0.00  0.00   377     5.40    436     1.4  0.10   1.6   0.117   0.000   70.9    44   47.9   68.9   8.33  .0740    0.000   204    7    100.0   10 
 3/08/21  2:30p   48.2   48.2   47.9    78   41.7   7.0     S   1.17  19.0     S   45.0   48.0   44.8   51.0  29.954  0.00  0.00   247     3.54    338     1.1  0.08   1.6   0.117   0.000   71.0    44   48.0   69.0   8.33  .0740    0.000   204    7    100.0   10 
 3/08/21  2:40p   47.2   48.3   47.2    78   40.7  11.0   SSW   1.83  22.0   SSW   41.5   47.0   41.3   43.6  29.953  0.00  0.00   132     1.89    251     0.5  0.04   1.6   0.124   0.000   71.0    44   48.0   69.0   8.33  .0740    0.000   205    7    100.0   10 
 3/08/21  2:50p   47.2   47.3   47.0    80   41.3   8.0     S   1.33  19.0     S   43.1   47.0   42.9   47.5  29.955  0.00  0.00   193     2.77    276     0.6  0.04   1.2   0.124   0.000   70.9    44   47.9   68.9   8.33  .0740    0.000   201    7    100.0   10 
 3/08/21  3:00p   48.1   48.1   47.2    80   42.2  12.0     S   2.00  22.0     S   42.1   48.0   42.0   47.7  29.955  0.00  0.00   283     4.06    555     1.2  0.09   1.4   0.117   0.000   70.9    44   47.9   68.9   8.33  .0740    0.007   201    7    100.0   10 
 3/08/21  3:10p   48.4   48.5   48.0    80   42.5  17.0   SSW   2.83  30.0   SSW   40.8   48.3   40.7   52.2  29.959  0.00  0.00   522     7.48    578     1.2  0.09   1.3   0.115   0.000   70.9    44   47.9   68.9   8.33  .0741    0.000   204    7    100.0   10 
 3/08/21  3:20p   48.5   48.6   48.4    79   42.3  16.0     S   2.67  28.0     S   41.2   48.4   41.1   51.9  29.962  0.00  0.00   467     6.69    563     1.1  0.08   1.2   0.115   0.000   70.9    44   47.9   68.9   8.33  .0741    0.000   204    7    100.0   10 
 3/08/21  3:30p   47.6   48.5   47.6    79   41.4  15.0     S   2.50  29.0     N   40.5   47.4   40.3   43.1  29.964  0.00  0.00   146     2.09    262     0.7  0.05   0.9   0.121   0.000   70.9    44   47.9   68.9   8.33  .0741    0.000   202    7    100.0   10 
 3/08/21  3:40p   47.3   47.6   47.3    79   41.1  16.0   SSW   2.67  29.0   SSW   39.8   47.1   39.6   40.8  29.970  0.00  0.00    87     1.25    100     0.0  0.00   0.5   0.123   0.000   70.9    44   47.9   68.9   8.33  .0741    0.000   204    7    100.0   10 
 3/08/21  3:50p   46.3   47.3   46.3    79   40.1  19.0   SSW   3.17  32.0   SSW   37.9   46.1   37.7   37.7  29.976  0.00  0.00    48     0.69     84     0.0  0.00   0.0   0.130   0.000   70.9    44   47.9   68.9   8.33  .0741    0.000   203    7    100.0   10 
 3/08/21  4:00p   45.9   46.4   45.9    79   39.8  17.0     S   2.83  29.0   SSW   38.0   45.7   37.8   38.2  29.976  0.00  0.00    65     0.93     74     0.0  0.00   0.0   0.133   0.000   71.0    44   48.0   69.0   8.33  .0741    0.006   204    7    100.0   10 
 3/08/21  4:10p   45.4   46.0   45.4    80   39.6  16.0     S   2.67  30.0   SSE   37.6   45.2   37.4   35.9  29.975  0.00  0.00    47     0.67     70     0.0  0.00   0.0   0.136   0.000   71.0    44   48.0   69.0   8.33  .0741    0.000   204    7    100.0   10 
 3/08/21  4:20p   45.5   45.5   45.4    81   40.0  10.0     S   1.67  23.0     S   40.1   45.3   39.9   39.3  29.971  0.00  0.00   103     1.48    118     0.0  0.00   0.0   0.135   0.000   71.0    43   47.4   68.9   8.21  .0741    0.000   203    7    100.0   10 
 3/08/21  4:30p   45.7   45.7   45.5    81   40.2  10.0   SSW   1.67  18.0     S   40.3   45.5   40.1   40.2  29.971  0.00  0.00   141     2.02    156     0.0  0.00   0.0   0.134   0.000   71.0    43   47.4   68.9   8.21  .0741    0.000   197    7     99.5   10 
 3/08/21  4:40p   46.1   46.1   45.7    81   40.6   9.0     S   1.50  18.0     S   41.3   45.9   41.1   42.1  29.971  0.00  0.00   185     2.65    236     0.0  0.00   0.0   0.131   0.000   71.0    43   47.4   68.9   8.21  .0741    0.000   202    7    100.0   10 
 3/08/21  4:50p   46.1   46.3   46.1    80   40.3  10.0     S   1.67  22.0   SSE   40.7   45.9   40.5   40.8  29.969  0.00  0.00   147     2.11    207     0.0  0.00   0.0   0.131   0.000   71.0    43   47.4   68.9   8.21  .0741    0.000   197    7     99.5   10 
 3/08/21  5:00p   45.9   46.2   45.9    81   40.4  11.0     S   1.83  22.0     S   40.1   45.7   39.9   38.3  29.974  0.00  0.00    54     0.77     93     0.0  0.00   0.0   0.133   0.000   71.0    43   47.4   68.9   8.21  .0741    0.003   203    7    100.0   10 
 3/08/21  5:10p   45.4   45.9   45.4    81   39.9  11.0     S   1.83  19.0    SW   39.5   45.2   39.3   38.1  29.970  0.00  0.00    75     1.08     91     0.0  0.00   0.0   0.136   0.000   70.9    43   47.3   68.8   8.21  .0741    0.000   203    7    100.0   10 
 3/08/21  5:20p   45.2   45.4   45.2    81   39.7  10.0     S   1.67  18.0     S   39.7   45.0   39.5   37.7  29.976  0.00  0.00    52     0.75     69     0.0  0.00   0.0   0.137   0.000   70.9    43   47.3   68.8   8.21  .0741    0.000   205    7    100.0   10 
 3/08/21  5:30p   45.1   45.2   45.1    81   39.6  12.0     S   2.00  26.0     S   38.7   44.9   38.5   36.2  29.979  0.00  0.00    17     0.24     26     0.0  0.00   0.0   0.138   0.000   70.8    43   47.2   68.6   8.22  .0741    0.000   204    7    100.0   10 
 3/08/21  5:40p   45.0   45.1   44.9    81   39.5  10.0     S   1.67  22.0   SSW   39.5   44.8   39.3   37.1  29.973  0.00  0.00    28     0.40     51     0.0  0.00   0.0   0.139   0.000   70.8    43   47.2   68.6   8.22  .0741    0.000   202    7    100.0   10 
 3/08/21  5:50p   45.1   45.2   45.0    81   39.6   8.0     S   1.33  12.0     S   40.7   44.9   40.5   38.3  29.972  0.00  0.00    36     0.52     54     0.0  0.00   0.0   0.138   0.000   70.9    43   47.3   68.8   8.21  .0741    0.000   202    7    100.0   10 
 3/08/21  6:00p   45.1   45.2   45.1    80   39.3   9.0     S   1.50  19.0   SSE   40.1   44.9   39.9   37.5  29.971  0.00  0.00    23     0.33     26     0.0  0.00   0.0   0.138   0.000   71.0    43   47.4   68.9   8.21  .0741    0.002   198    7    100.0   10 
 3/08/21  6:10p   45.1   45.2   45.0    80   39.3   8.0     S   1.33  19.0   SSW   40.7   44.9   40.5   37.8  29.971  0.00  0.00    11     0.16     21     0.0  0.00   0.0   0.138   0.000   70.9    44   47.9   68.9   8.33  .0741    0.000   203    7    100.0   10 
 3/08/21  6:20p   44.9   45.2   44.9    80   39.1   7.0     S   1.17  17.0     S   41.1   44.7   40.9   37.8  29.972  0.00  0.00     1     0.01      5     0.0  0.00   0.0   0.140   0.000   70.9    44   47.9   68.9   8.33  .0741    0.000   203    7    100.0   10 
 3/08/21  6:30p   44.8   45.0   44.8    79   38.7   7.0     S   1.17  21.0   SSE   41.0   44.6   40.8   37.6  29.970  0.00  0.00     0     0.00      0     0.0  0.00   0.0   0.140   0.000   70.9    44   47.9   68.9   8.33  .0741    0.000   204    7    100.0   10 
 3/08/21  6:40p   44.7   44.9   44.7    79   38.6   6.0     S   1.00  14.0   SSE   41.3   44.5   41.1   37.9  29.975  0.00  0.00     0     0.00      0     0.0  0.00   0.0   0.141   0.000   70.8    44   47.8   68.7   8.33  .0741    0.000   203    7    100.0   10 
 3/08/21  6:50p   44.8   44.9   44.7    79   38.7   7.0     S   1.17  18.0     N   41.0   44.6   40.8   37.6  29.974  0.00  0.00     0     0.00      0     0.0  0.00   0.0   0.140   0.000   70.7    44   47.7   68.6   8.34  .0741    0.000   204    7    100.0   10 
 3/08/21  7:00p   44.8   44.9   44.8    79   38.7   6.0     S   1.00  15.0   SSW   41.5   44.6   41.3   38.1  29.972  0.00  0.00     0     0.00      0     0.0  0.00   0.0   0.140   0.000   70.7    44   47.7   68.6   8.34  .0741    0.001   203    7    100.0   10 
 3/08/21  7:10p   45.1   45.1   44.8    79   39.0   9.0     S   1.50  17.0     S   40.1   44.9   39.9   37.0  29.973  0.00  0.00     0     0.00      0     0.0  0.00   0.0   0.138   0.000   70.5    44   47.5   68.4   8.34  .0742    0.000   201    7    100.0   10 
 3/08/21  7:20p   45.0   45.1   45.0    78   38.6   8.0     S   1.33  20.0   SSW   40.6   44.7   40.3   37.3  29.972  0.00  0.00     0     0.00      0     0.0  0.00   0.0   0.139   0.000   70.5    44   47.5   68.4   8.34  .0742    0.000   203    7    100.0   10 
 3/08/21  7:30p   44.8   45.0   44.7    79   38.7   5.0     S   0.83  15.0   SSE   42.1   44.6   41.9   38.7  29.976  0.00  0.00     0     0.00      0     0.0  0.00   0.0   0.140   0.000   70.5    44   47.5   68.4   8.34  .0742    0.000   202    7    100.0   10 
 3/08/21  7:40p   45.1   45.2   44.8    78   38.6   8.0     S   1.33  16.0   SSE   40.7   44.8   40.4   37.4  29.980  0.00  0.00     0     0.00      0     0.0  0.00   0.0   0.138   0.000   70.6    44   47.6   68.5   8.34  .0742    0.000   203    7    100.0   10 
 3/08/21  7:50p   44.7   45.2   44.6    80   38.9   6.0     S   1.00  14.0     S   41.3   44.5   41.1   37.9  29.982  0.01  0.00     0     0.00      0     0.0  0.00   0.0   0.141   0.000   70.5    44   47.5   68.4   8.34  .0742    0.000   201    7    100.0   10 
 3/08/21  8:00p   43.9   44.6   43.9    80   38.1   6.0     S   1.00  13.0     S   40.4   43.7   40.2   37.0  29.979  0.00  0.00     0     0.00      0     0.0  0.00   0.0   0.147   0.000   70.3    44   47.3   68.1   8.34  .0742    0.001   202    7    100.0   10 
 3/08/21  8:10p   43.7   43.9   43.7    81   38.3   6.0     S   1.00  14.0   SSW   40.1   43.5   39.9   36.7  29.977  0.00  0.00     0     0.00      0     0.0  0.00   0.0   0.148   0.000   70.1    45   47.8   67.9   8.45  .0742    0.000   202    7    100.0   10 
 3/08/21  8:20p   43.4   43.7   43.4    81   38.0   4.0     S   0.67  10.0     S   41.2   43.2   41.0   37.8  29.967  0.00  0.00     0     0.00      0     0.0  0.00   0.0   0.150   0.000   70.0    45   47.7   67.8   8.45  .0742    0.000   203    7    100.0   10 
 3/08/21  8:30p   43.2   43.4   43.2    81   37.8   4.0     S   0.67  11.0   SSE   41.0   43.0   40.8   37.6  29.966  0.00  0.00     0     0.00      0     0.0  0.00   0.0   0.151   0.000   69.9    45   47.6   67.7   8.45  .0742    0.000   205    7    100.0   10 
 3/08/21  8:40p   43.2   43.2   43.0    82   38.1   5.0    SE   0.83  13.0   SSE   40.2   43.0   40.0   36.8  29.965  0.00  0.00     0     0.00      0     0.0  0.00   0.0   0.151   0.000   69.8    45   47.5   67.7   8.45  .0742    0.000   204    7    100.0   10 
 3/08/21  8:50p   43.4   43.4   43.1    82   38.3   5.0     S   0.83  15.0   SSE   40.5   43.2   40.3   37.1  29.966  0.00  0.00     0     0.00      0     0.0  0.00   0.0   0.150   0.000   69.7    45   47.4   67.6   8.46  .0743    0.000   203    7    100.0   10 
 3/08/21  9:00p   43.8   43.8   43.4    82   38.7   4.0     S   0.67   9.0     S   41.7   43.6   41.5   38.3  29.966  0.00  0.00     0     0.00      0     0.0  0.00   0.0   0.147   0.000   69.6    45   47.3   67.5   8.46  .0743    0.001   200    7    100.0   10 
 3/08/21  9:10p   44.1   44.1   43.8    82   39.0   6.0     S   1.00  16.0   SSW   40.6   43.9   40.4   37.2  29.969  0.00  0.00     0     0.00      0     0.0  0.00   0.0   0.145   0.000   69.5    44   46.6   67.4   8.35  .0743    0.000   203    7    100.0   10 
 3/08/21  9:20p   44.2   44.2   44.1    82   39.1   6.0     S   1.00  17.0    SW   40.7   44.0   40.5   37.4  29.965  0.00  0.00     0     0.00      0     0.0  0.00   0.0   0.144   0.000   69.5    45   47.2   67.4   8.46  .0743    0.000   201    7    100.0   10 
 3/08/21  9:30p   44.1   44.2   44.0    82   39.0   4.0     S   0.67  14.0     S   42.0   43.9   41.8   38.6  29.959  0.00  0.00     0     0.00      0     0.0  0.00   0.0   0.145   0.000   69.4    45   47.1   67.4   8.46  .0743    0.000   203    7    100.0   10 
 3/08/21  9:40p   43.8   44.1   43.8    82   38.7   4.0    SE   0.67   9.0     E   41.7   43.6   41.5   38.3  29.962  0.00  0.00     0     0.00      0     0.0  0.00   0.0   0.147   0.000   69.2    45   46.9   67.2   8.47  .0743    0.000   203    7    100.0   10 
 3/08/21  9:50p   43.8   43.8   43.7    82   38.7   4.0   ESE   0.67  11.0   SSE   41.7   43.6   41.5   38.3  29.971  0.01  0.00     0     0.00      0     0.0  0.00   0.0   0.147   0.000   69.1    45   46.9   67.2   8.47  .0744    0.000   203    7    100.0   10 
 3/08/21 10:00p   43.7   43.8   43.7    82   38.6   5.0     S   0.83  17.0     S   40.8   43.5   40.6   37.4  29.976  0.02  0.15     0     0.00      0     0.0  0.00   0.0   0.148   0.000   69.0    45   46.8   67.1   8.47  .0744    0.001   203    7    100.0   10 
 3/08/21 10:10p   43.2   43.7   43.2    83   38.4   5.0     S   0.83  18.0   ESE   40.2   43.0   40.0   36.8  29.970  0.00  0.05     0     0.00      0     0.0  0.00   0.0   0.151   0.000   68.9    45   46.7   67.0   8.47  .0744    0.000   203    7    100.0   10 
 3/08/21 10:20p   42.7   43.3   42.7    83   37.9   4.0    SE   0.67  16.0   SSE   40.4   42.5   40.2   37.0  29.965  0.00  0.00     0     0.00      0     0.0  0.00   0.0   0.155   0.000   68.8    45   46.6   66.9   8.47  .0744    0.000   204    7    100.0   10 
 3/08/21 10:30p   42.4   42.8   42.4    84   37.9   5.0     S   0.83  14.0     S   39.3   42.2   39.1   35.9  29.961  0.00  0.00     0     0.00      0     0.0  0.00   0.0   0.157   0.000   68.7    45   46.5   66.8   8.48  .0744    0.000   202    7    100.0   10 
 3/08/21 10:40p   42.1   42.4   42.1    84   37.6   4.0    SE   0.67  15.0     S   39.7   41.9   39.5   36.3  29.954  0.00  0.00     0     0.00      0     0.0  0.00   0.0   0.159   0.000   68.6    45   46.4   66.7   8.48  .0744    0.000   203    7    100.0   10 
 3/08/21 10:50p   42.0   42.2   42.0    85   37.8   5.0     S   0.83  13.0    SE   38.8   41.8   38.6   35.4  29.955  0.00  0.00     0     0.00      0     0.0  0.00   0.0   0.160   0.000   68.5    44   45.7   66.5   8.35  .0744    0.000   204    7    100.0   10 
 3/08/21 11:00p   42.4   42.4   42.0    85   38.2   6.0     S   1.00  17.0   SSE   38.6   42.2   38.4   35.2  29.948  0.00  0.00     0     0.00      0     0.0  0.00   0.0   0.157   0.000   68.4    44   45.6   66.4   8.35  .0744    0.001   204    7    100.0   10 
 3/08/21 11:10p   42.5   42.5   42.4    85   38.3   5.0     S   0.83  12.0    SE   39.4   42.3   39.2   36.0  29.949  0.00  0.00     0     0.00      0     0.0  0.00   0.0   0.156   0.000   68.4    44   45.6   66.4   8.35  .0744    0.000   201    7    100.0   10 
 3/08/21 11:20p   42.6   42.6   42.5    85   38.4   5.0    SE   0.83  16.0    SE   39.5   42.5   39.4   36.2  29.949  0.00  0.00     0     0.00      0     0.0  0.00   0.0   0.156   0.000   68.3    44   45.5   66.4   8.35  .0745    0.000   202    7    100.0   10 
 3/08/21 11:30p   42.8   42.8   42.5    85   38.6   5.0     S   0.83  15.0   SSW   39.8   42.7   39.7   36.5  29.948  0.00  0.00     0     0.00      0     0.0  0.00   0.0   0.154   0.000   68.2    44   45.4   66.3   8.35  .0745    0.000   201    7    100.0   10 
 3/08/21 11:40p   42.6   42.8   42.6    85   38.4   5.0     S   0.83  18.0   ESE   39.5   42.5   39.4   36.2  29.943  0.00  0.00     0     0.00      0     0.0  0.00   0.0   0.156   0.000   68.1    44   45.4   66.2   8.35  .0745    0.000   202    7    100.0   10 
 3/08/21 11:50p   42.7   42.7   42.6    85   38.5   5.0   ESE   0.83  14.0   SSE   39.6   42.6   39.5   36.3  29.938  0.00  0.00     0     0.00      0     0.0  0.00   0.0   0.155   0.000   68.0    44   45.3   66.1   8.35  .0745    0.000   202    7    100.0   10 
 3/09/21 12:00a   42.8   42.8   42.6    85   38.6   5.0    SE   0.83  13.0   ESE   39.8   42.7   39.7   36.5  29.941  0.00  0.00     0     0.00      0     0.0  0.00   0.0   0.154   0.000   67.9    44   45.2   66.0   8.35  .0745    0.001   201    7    100.0   10 
 3/09/21 12:10a   43.4   43.4   42.7    85   39.2   6.0     S   1.00  13.0   SSW   39.8   43.3   39.7   36.6  29.943  0.00  0.00     0     0.00      0     0.0  0.00   0.0   0.150   0.000   67.9    44   45.2   66.0   8.35  .0745    0.000   202    7    100.0   10 
 3/09/21 12:20a   43.8   43.8   43.4    84   39.3   6.0     S   1.00  11.0    SE   40.3   43.7   40.2   37.1  29.950  0.00  0.00     0     0.00      0     0.0  0.00   0.0   0.147   0.000   67.8    44   45.1   65.9   8.35  .0746    0.000   199    7    100.0   10 
 3/09/21 12:30a   43.8   43.9   43.8    84   39.3   6.0     S   1.00  16.0   SSE   40.3   43.7   40.2   37.1  29.946  0.01  0.00     0     0.00      0     0.0  0.00   0.0   0.147   0.000   67.7    44   45.0   65.7   8.35  .0746    0.000   202    7    100.0   10 
 3/09/21 12:40a   43.8   43.9   43.7    85   39.6   6.0     S   1.00  16.0    SE   40.3   43.7   40.2   37.1  29.945  0.01  0.05     0     0.00      0     0.0  0.00   0.0   0.147   0.000   67.6    44   44.9   65.6   8.35  .0746    0.000   203    7    100.0   10 
 3/09/21 12:50a   43.4   43.7   43.4    85   39.2   7.0     S   1.17  23.0   ESE   39.3   43.3   39.2   36.1  29.953  0.03  0.20     0     0.00      0     0.0  0.00   0.0   0.150   0.000   67.6    44   44.9   65.6   8.35  .0746    0.000   205    7    100.0   10 
 3/09/21  1:00a   42.8   43.4   42.8    86   38.9   6.0     S   1.00  14.0   SSE   39.1   42.7   39.0   35.8  29.954  0.02  0.23     0     0.00      0     0.0  0.00   0.0   0.154   0.000   67.5    44   44.8   65.5   8.35  .0746    0.001   202    7    100.0   10 
 3/09/21  1:10a   42.5   42.8   42.5    87   38.9   6.0     S   1.00  12.0    SE   38.7   42.4   38.6   35.4  29.958  0.02  0.15     0     0.00      0     0.0  0.00   0.0   0.156   0.000   67.4    44   44.7   65.4   8.35  .0746    0.000   204    7    100.0   10 
 3/09/21  1:20a   42.2   42.5   42.2    88   38.9   7.0     S   1.17  13.0     S   37.8   42.1   37.7   34.5  29.964  0.03  0.25     0     0.00      0     0.0  0.00   0.0   0.158   0.000   67.3    44   44.6   65.3   8.35  .0747    0.000   201    7    100.0   10 
 3/09/21  1:30a   41.8   42.2   41.8    88   38.5   4.0     S   0.67  11.0     S   39.4   41.7   39.3   36.1  29.958  0.02  0.25     0     0.00      0     0.0  0.00   0.0   0.161   0.000   67.3    44   44.6   65.3   8.35  .0747    0.000   205    7    100.0   10 
 3/09/21  1:40a   41.1   41.7   41.0    88   37.8   5.0     S   0.83  12.0   SSE   37.7   41.0   37.6   34.4  29.954  0.01  0.16     0     0.00      0     0.0  0.00   0.0   0.166   0.000   67.2    44   44.5   65.2   8.35  .0747    0.000   200    7    100.0   10 
 3/09/21  1:50a   40.9   41.0   40.9    89   37.9   4.0     S   0.67  12.0    SE   38.4   40.8   38.3   35.1  29.945  0.00  0.00     0     0.00      0     0.0  0.00   0.0   0.167   0.000   67.1    44   44.4   65.1   8.35  .0747    0.000   203    7    100.0   10 
 3/09/21  2:00a   40.9   41.0   40.8    89   37.9   5.0   SSW   0.83  18.0   SSE   37.5   40.8   37.4   34.2  29.941  0.00  0.00     0     0.00      0     0.0  0.00   0.0   0.167   0.000   67.1    44   44.4   65.1   8.35  .0746    0.001   202    7    100.0   10 
 3/09/21  2:10a   40.9   41.0   40.8    90   38.2   7.0    SE   1.17  15.0   SSE   36.2   40.8   36.1   32.9  29.927  0.00  0.00     0     0.00      0     0.0  0.00   0.0   0.167   0.000   67.0    44   44.4   65.0   8.35  .0746    0.000   200    7    100.0   10 
 3/09/21  2:20a   41.2   41.2   40.8    89   38.2   7.0     S   1.17  17.0    SE   36.5   41.1   36.4   33.2  29.927  0.00  0.00     0     0.00      0     0.0  0.00   0.0   0.165   0.000   66.9    44   44.3   64.9   8.35  .0746    0.000   202    7    100.0   10 
Email: AdamSPAM@StormwatchersRetreat.com (To send me email remove the word 'SPAM' from my email address.)